createdAt,value
2018-11-13T00:02:06.308Z,62.86
2018-11-13T00:04:34.707Z,64.07
2018-11-13T00:07:03.165Z,62.67
2018-11-13T00:09:31.572Z,64.76
2018-11-13T00:11:59.956Z,64.96
2018-11-13T00:14:28.840Z,65.18
2018-11-13T00:16:57.253Z,65.02
2018-11-13T00:19:25.696Z,64.35
2018-11-13T00:21:54.098Z,63.77
2018-11-13T00:24:23.296Z,63.96
2018-11-13T00:26:51.684Z,64.74
2018-11-13T00:29:20.230Z,65.33
2018-11-13T00:31:48.575Z,65.67
2018-11-13T00:34:16.958Z,65.24
2018-11-13T00:36:45.377Z,66.59
2018-11-13T00:39:14.535Z,65.05
2018-11-13T00:41:42.873Z,65.77
2018-11-13T00:44:12.013Z,63.22
2018-11-13T00:46:40.394Z,64.04
2018-11-13T00:49:09.544Z,64.46
2018-11-13T00:51:38.295Z,65.61
2018-11-13T00:54:06.722Z,65.72
2018-11-13T00:56:35.277Z,66.46
2018-11-13T00:59:03.675Z,68.50
2018-11-13T01:01:32.129Z,65.55
2018-11-13T01:04:00.517Z,67.94
2018-11-13T01:06:31.945Z,68.65
2018-11-13T01:09:00.509Z,66.45
2018-11-13T01:11:28.929Z,67.48
2018-11-13T01:13:57.292Z,66.62
2018-11-13T01:16:25.625Z,67.38
2018-11-13T01:18:54.072Z,67.38
2018-11-13T01:21:22.432Z,66.24
2018-11-13T01:23:50.740Z,65.39
2018-11-13T01:26:19.068Z,65.88
2018-11-13T01:28:47.463Z,69.10
2018-11-13T01:31:15.868Z,67.11
2018-11-13T01:33:44.177Z,65.41
2018-11-13T01:36:12.667Z,65.02
2018-11-13T01:38:40.967Z,65.50
2018-11-13T01:41:09.284Z,65.98
2018-11-13T01:43:37.604Z,67.32
2018-11-13T01:46:06.089Z,66.23
2018-11-13T01:48:34.402Z,67.31
2018-11-13T01:51:02.712Z,66.48
2018-11-13T01:53:31.081Z,65.83
2018-11-13T01:55:59.495Z,64.80
2018-11-13T01:58:27.791Z,66.91
2018-11-13T02:00:56.203Z,66.81
2018-11-13T02:03:24.607Z,66.89
2018-11-13T02:05:53.020Z,66.92
2018-11-13T02:08:21.329Z,68.30
2018-11-13T02:10:49.663Z,70.10
2018-11-13T02:13:17.964Z,69.64
2018-11-13T02:15:46.349Z,71.30
2018-11-13T02:18:14.661Z,70.41
2018-11-13T02:20:42.980Z,68.52
2018-11-13T02:23:11.327Z,65.90
2018-11-13T02:25:39.635Z,68.71
2018-11-13T02:28:07.949Z,68.57
2018-11-13T02:30:36.286Z,69.46
2018-11-13T02:33:04.887Z,70.29
2018-11-13T02:35:33.636Z,68.96
2018-11-13T02:38:01.848Z,69.44
2018-11-13T02:40:30.217Z,67.37
2018-11-13T02:42:58.723Z,68.13
2018-11-13T02:45:27.096Z,68.79
2018-11-13T02:47:55.465Z,69.93
2018-11-13T02:50:23.785Z,70.44
2018-11-13T02:52:52.107Z,68.74
2018-11-13T02:55:20.460Z,68.99
2018-11-13T02:57:48.797Z,69.58
2018-11-13T03:00:18.667Z,69.28
2018-11-13T03:02:47.120Z,67.80
2018-11-13T03:05:16.655Z,68.21
2018-11-13T03:07:45.088Z,68.36
2018-11-13T03:10:14.635Z,69.85
2018-11-13T03:12:43.149Z,69.26
2018-11-13T03:15:13.738Z,69.19
2018-11-13T03:17:42.200Z,68.64
2018-11-13T03:20:13.138Z,67.91
2018-11-13T03:22:42.006Z,67.99
2018-11-13T03:25:12.803Z,68.21
2018-11-13T03:27:41.187Z,68.10
2018-11-13T03:30:11.768Z,69.43
2018-11-13T03:32:40.165Z,67.73
2018-11-13T03:35:08.589Z,67.48
2018-11-13T03:37:36.984Z,69.04
2018-11-13T03:40:06.171Z,68.35
2018-11-13T03:42:34.651Z,69.58
2018-11-13T03:45:03.046Z,70.28
2018-11-13T03:47:31.412Z,69.36
2018-11-13T03:49:59.815Z,69.55
2018-11-13T03:52:28.209Z,68.94
2018-11-13T03:54:56.592Z,69.22
2018-11-13T03:57:25.021Z,69.18
2018-11-13T03:59:53.323Z,69.73
2018-11-13T04:02:21.700Z,70.06
2018-11-13T04:04:50.094Z,69.58
2018-11-13T04:07:18.464Z,70.36
2018-11-13T04:09:46.827Z,70.58
2018-11-13T04:12:15.238Z,69.34
2018-11-13T04:14:43.729Z,69.28
2018-11-13T04:17:12.109Z,69.59
2018-11-13T04:19:40.656Z,68.56
2018-11-13T04:22:09.085Z,68.31
2018-11-13T04:24:37.477Z,66.88
2018-11-13T04:27:05.911Z,66.27
2018-11-13T04:29:34.361Z,66.41
2018-11-13T04:32:02.873Z,65.23
2018-11-13T04:34:31.267Z,65.87
2018-11-13T04:36:59.710Z,68.69
2018-11-13T04:39:28.103Z,69.34
2018-11-13T04:41:56.401Z,68.44
2018-11-13T04:44:24.806Z,69.30
2018-11-13T04:46:53.238Z,68.68
2018-11-13T04:49:21.732Z,67.22
2018-11-13T04:51:50.147Z,68.32
2018-11-13T04:54:18.572Z,67.11
2018-11-13T04:56:47.020Z,67.02
2018-11-13T04:59:15.424Z,66.95
2018-11-13T05:01:43.852Z,67.52
2018-11-13T05:04:12.217Z,67.01
2018-11-13T05:06:40.564Z,68.45
2018-11-13T05:09:08.964Z,67.87
2018-11-13T05:11:37.492Z,66.29
2018-11-13T05:14:06.051Z,66.89
2018-11-13T05:16:34.467Z,67.27
2018-11-13T05:19:02.851Z,67.00
2018-11-13T05:21:31.303Z,66.79
2018-11-13T05:23:59.784Z,68.00
2018-11-13T05:26:28.181Z,67.54
2018-11-13T05:28:56.639Z,67.42
2018-11-13T05:31:25.056Z,68.02
2018-11-13T05:33:53.418Z,66.66
2018-11-13T05:36:21.852Z,68.30
2018-11-13T05:38:50.197Z,66.99
2018-11-13T05:41:18.568Z,65.19
2018-11-13T05:43:46.947Z,66.12
2018-11-13T05:46:15.323Z,66.51
2018-11-13T05:48:43.707Z,66.81
2018-11-13T05:51:12.136Z,67.54
2018-11-13T05:53:40.504Z,66.27
2018-11-13T05:56:08.844Z,67.12
2018-11-13T05:58:37.450Z,66.48
2018-11-13T06:01:06.044Z,66.92
2018-11-13T06:03:34.424Z,67.44
2018-11-13T06:06:02.920Z,67.85
2018-11-13T06:08:31.349Z,66.63
2018-11-13T06:10:59.583Z,67.79
2018-11-13T06:13:27.912Z,67.58
2018-11-13T06:15:56.372Z,67.85
2018-11-13T06:18:24.749Z,64.99
2018-11-13T06:20:52.977Z,66.40
2018-11-13T06:23:21.344Z,65.11
2018-11-13T06:25:49.672Z,66.99
2018-11-13T06:28:18.028Z,65.37
2018-11-13T06:30:46.356Z,63.87
2018-11-13T06:33:14.783Z,63.72
2018-11-13T06:35:43.215Z,65.49
2018-11-13T06:38:11.739Z,65.63
2018-11-13T06:40:40.242Z,66.45
2018-11-13T06:43:08.647Z,64.08
2018-11-13T06:45:37.040Z,63.11
2018-11-13T06:48:05.808Z,63.87
2018-11-13T06:50:34.196Z,64.14
2018-11-13T06:53:02.600Z,63.98
2018-11-13T06:55:32.997Z,64.80
2018-11-13T06:58:01.339Z,65.83
2018-11-13T07:00:29.614Z,64.43
2018-11-13T07:02:58.070Z,66.22
2018-11-13T07:05:26.348Z,67.48
2018-11-13T07:07:54.627Z,66.97
2018-11-13T07:10:24.090Z,66.51
2018-11-13T07:12:53.011Z,66.14
2018-11-13T07:15:23.189Z,66.31
2018-11-13T07:17:53.679Z,66.48
2018-11-13T07:20:23.009Z,63.99
2018-11-13T07:22:51.336Z,63.87
2018-11-13T07:25:19.733Z,63.46
2018-11-13T07:27:48.134Z,65.09
2018-11-13T07:30:17.443Z,65.64
2018-11-13T07:32:45.800Z,67.23
2018-11-13T07:35:15.707Z,64.90
2018-11-13T07:37:48.471Z,67.42
2018-11-13T07:40:17.296Z,65.63
2018-11-13T07:42:45.712Z,62.89
2018-11-13T07:45:25.951Z,63.98
2018-11-13T07:47:57.311Z,63.84
2018-11-13T07:50:28.133Z,66.00
2018-11-13T07:52:56.605Z,64.49
2018-11-13T07:55:24.905Z,63.22
2018-11-13T07:57:53.323Z,64.68
2018-11-13T08:00:22.967Z,65.77
2018-11-13T08:02:52.569Z,65.64
2018-11-13T08:05:21.022Z,66.50
2018-11-13T08:07:49.388Z,66.14
2018-11-13T08:10:17.688Z,65.42
2018-11-13T08:12:46.418Z,65.07
2018-11-13T08:15:16.082Z,63.95
2018-11-13T08:17:44.383Z,65.31
2018-11-13T08:20:13.888Z,64.72
2018-11-13T08:22:42.513Z,63.84
2018-11-13T08:25:11.235Z,65.91
2018-11-13T08:27:40.374Z,64.36
2018-11-13T08:30:12.700Z,63.00
2018-11-13T08:32:40.980Z,64.65
2018-11-13T08:35:09.349Z,65.15
2018-11-13T08:37:37.740Z,64.67
2018-11-13T08:40:07.925Z,63.83
2018-11-13T08:42:36.239Z,67.03
2018-11-13T08:45:04.621Z,65.91
2018-11-13T08:47:32.920Z,66.15
2018-11-13T08:50:01.895Z,66.58
2018-11-13T08:52:30.704Z,66.04
2018-11-13T08:54:59.033Z,63.88
2018-11-13T08:57:27.688Z,63.40
2018-11-13T08:59:55.989Z,63.01
2018-11-13T09:02:24.331Z,62.92
2018-11-13T09:04:52.879Z,61.32
2018-11-13T09:07:21.167Z,61.37
2018-11-13T09:09:49.494Z,63.07
2018-11-13T09:12:17.860Z,62.55
2018-11-13T09:14:46.166Z,61.39
2018-11-13T09:17:14.610Z,63.30
2018-11-13T09:19:42.975Z,61.79
2018-11-13T09:22:11.184Z,61.24
2018-11-13T09:24:39.456Z,61.27
2018-11-13T09:27:07.745Z,62.28
2018-11-13T09:29:36.109Z,61.79
2018-11-13T09:32:04.403Z,62.24
2018-11-13T09:34:32.770Z,60.21
2018-11-13T09:37:01.215Z,60.61
2018-11-13T09:39:29.644Z,60.48
2018-11-13T09:41:58.104Z,61.89
2018-11-13T09:44:26.583Z,63.36
2018-11-13T09:46:54.994Z,62.12
2018-11-13T09:49:23.510Z,62.93
2018-11-13T09:51:52.028Z,61.40
2018-11-13T09:54:20.414Z,60.50
2018-11-13T09:56:48.817Z,62.84
2018-11-13T09:59:17.824Z,61.31
2018-11-13T10:01:46.757Z,60.85
2018-11-13T10:04:15.810Z,60.60
2018-11-13T10:06:44.259Z,61.32
2018-11-13T10:09:14.104Z,62.44
2018-11-13T10:11:44.283Z,63.26
2018-11-13T10:14:13.871Z,62.10
2018-11-13T10:16:43.071Z,59.69
2018-11-13T10:19:12.563Z,61.00
2018-11-13T10:21:48.687Z,63.09
2018-11-13T10:24:18.054Z,60.88
2018-11-13T10:26:47.061Z,59.74
2018-11-13T10:29:16.338Z,58.65
2018-11-13T10:31:45.646Z,60.91
2018-11-13T10:34:14.690Z,60.91
2018-11-13T10:36:43.609Z,59.01
2018-11-13T10:39:12.945Z,59.82
2018-11-13T10:41:42.035Z,60.02
2018-11-13T10:44:10.882Z,59.51
2018-11-13T10:46:40.124Z,58.36
2018-11-13T10:49:09.378Z,56.35
2018-11-13T10:51:39.720Z,58.60
2018-11-13T10:54:08.894Z,57.37
2018-11-13T10:56:38.366Z,57.36
2018-11-13T10:59:07.485Z,57.04
2018-11-13T11:01:42.041Z,55.13
2018-11-13T11:04:16.051Z,58.64
2018-11-13T11:06:44.763Z,60.78
2018-11-13T11:09:13.453Z,58.05
2018-11-13T11:11:42.411Z,57.83
2018-11-13T11:14:11.393Z,58.23
2018-11-13T11:16:40.412Z,57.15
2018-11-13T11:19:09.604Z,58.71
2018-11-13T11:21:39.761Z,57.10
2018-11-13T11:24:08.723Z,57.64
2018-11-13T11:26:36.987Z,57.48
2018-11-13T11:29:13.063Z,58.57
2018-11-13T11:31:41.592Z,59.17
2018-11-13T11:34:09.933Z,58.80
2018-11-13T11:36:38.250Z,59.14
2018-11-13T11:39:08.508Z,58.98
2018-11-13T11:41:37.042Z,56.83
2018-11-13T11:44:06.327Z,56.48
2018-11-13T11:46:34.771Z,56.59
2018-11-13T11:49:04.049Z,54.78
2018-11-13T11:51:34.195Z,55.25
2018-11-13T11:54:04.308Z,53.13
2018-11-13T11:56:32.669Z,53.17
2018-11-13T11:59:01.042Z,54.17
2018-11-13T12:01:29.494Z,55.90
2018-11-13T12:03:57.759Z,54.98
2018-11-13T12:06:26.063Z,56.86
2018-11-13T12:08:55.315Z,57.35
2018-11-13T12:11:23.596Z,58.32
2018-11-13T12:13:51.891Z,55.20
2018-11-13T12:16:20.196Z,57.06
2018-11-13T12:18:48.502Z,54.98
2018-11-13T12:21:16.857Z,53.26
2018-11-13T12:23:45.221Z,53.91
2018-11-13T12:26:13.505Z,52.45
2018-11-13T12:28:41.784Z,52.15
2018-11-13T12:31:10.099Z,55.34
2018-11-13T12:33:38.380Z,53.80
2018-11-13T12:36:06.657Z,54.88
2018-11-13T12:38:34.936Z,51.84
2018-11-13T12:41:05.558Z,50.15
2018-11-13T12:46:18.091Z,53.43
2018-11-13T12:48:47.810Z,53.72
2018-11-13T12:51:22.989Z,52.94
2018-11-13T12:53:51.857Z,53.97
2018-11-13T12:56:20.467Z,54.72
2018-11-13T12:58:50.376Z,53.90
2018-11-13T13:01:18.911Z,54.02
2018-11-13T13:03:47.441Z,54.42
2018-11-13T13:06:16.238Z,54.07
2018-11-13T13:08:44.808Z,52.87
2018-11-13T13:11:13.416Z,53.70
2018-11-13T13:13:44.417Z,53.65
2018-11-13T13:16:14.556Z,54.31
2018-11-13T13:18:43.158Z,54.80
2018-11-13T13:21:11.597Z,56.08
2018-11-13T13:23:40.015Z,57.38
2018-11-13T13:26:08.955Z,59.12
2018-11-13T13:28:37.387Z,56.94
2018-11-13T13:31:06.069Z,57.06
2018-11-13T13:33:34.466Z,56.67
2018-11-13T13:36:04.563Z,56.09
2018-11-13T13:38:34.531Z,54.11
2018-11-13T13:41:03.649Z,54.97
2018-11-13T13:43:32.768Z,56.17
2018-11-13T13:46:01.281Z,56.62
2018-11-13T13:48:29.815Z,57.37
2018-11-13T13:50:58.579Z,58.19
2018-11-13T13:53:27.690Z,58.90
2018-11-13T13:55:56.058Z,59.65
2018-11-13T13:58:24.917Z,59.04
2018-11-13T14:00:53.639Z,57.13
2018-11-13T14:03:21.848Z,59.87
2018-11-13T14:05:50.161Z,59.67
2018-11-13T14:08:19.036Z,61.39
2018-11-13T14:10:47.429Z,62.61
2018-11-13T14:13:16.009Z,61.32
2018-11-13T14:15:44.424Z,60.61
2018-11-13T14:18:13.198Z,61.43
2018-11-13T14:20:41.570Z,60.49
2018-11-13T14:23:09.812Z,61.81
2018-11-13T14:25:38.213Z,61.98
2018-11-13T14:28:06.539Z,62.56
2018-11-13T14:30:36.085Z,61.33
2018-11-13T14:33:06.494Z,61.27
2018-11-13T14:35:35.021Z,60.44
2018-11-13T14:38:03.612Z,63.77
2018-11-13T14:40:36.401Z,63.38
2018-11-13T14:43:05.575Z,63.84
2018-11-13T14:45:34.028Z,62.85
2018-11-13T14:48:02.384Z,63.85
2018-11-13T14:50:32.125Z,62.85
2018-11-13T14:53:00.691Z,63.24
2018-11-13T14:55:31.581Z,62.53
2018-11-13T14:58:00.700Z,63.52
2018-11-13T15:00:30.041Z,62.49
2018-11-13T15:02:58.919Z,61.35
2018-11-13T15:05:27.828Z,62.37
2018-11-13T15:07:57.549Z,61.35
2018-11-13T15:10:31.974Z,62.66
2018-11-13T15:13:00.303Z,63.33
2018-11-13T15:15:28.588Z,62.72
2018-11-13T15:17:56.901Z,62.29
2018-11-13T15:20:25.224Z,61.39
2018-11-13T15:22:53.529Z,61.21
2018-11-13T15:25:21.839Z,61.58
2018-11-13T15:27:50.128Z,62.62
2018-11-13T15:30:26.756Z,62.98
2018-11-13T15:33:26.429Z,62.64
2018-11-13T15:35:54.794Z,61.93
2018-11-13T15:38:23.200Z,62.95
2018-11-13T15:40:51.688Z,63.27
2018-11-13T15:43:20.106Z,62.92
2018-11-13T15:45:48.516Z,62.22
2018-11-13T15:48:17.129Z,62.88
2018-11-13T15:50:45.588Z,63.45
2018-11-13T15:53:13.980Z,62.41
2018-11-13T15:55:42.464Z,62.42
2018-11-13T15:58:10.897Z,63.66
2018-11-13T16:00:40.624Z,61.59
2018-11-13T16:03:11.444Z,63.40
2018-11-13T16:05:42.174Z,64.57
2018-11-13T16:08:10.954Z,62.14
2018-11-13T16:10:39.277Z,62.78
2018-11-13T16:13:07.796Z,63.19
2018-11-13T16:15:37.133Z,61.36
2018-11-13T16:18:06.856Z,59.69
2018-11-13T16:20:35.160Z,63.00
2018-11-13T16:23:03.512Z,60.02
2018-11-13T16:25:31.859Z,62.45
2018-11-13T16:28:00.309Z,61.64
2018-11-13T16:30:30.420Z,62.65
2018-11-13T16:32:58.529Z,61.05
2018-11-13T16:35:27.772Z,59.99
2018-11-13T16:37:57.019Z,61.94
2018-11-13T16:40:26.606Z,61.00
2018-11-13T16:42:55.035Z,61.31
2018-11-13T16:45:25.014Z,61.73
2018-11-13T16:47:54.977Z,62.46
2018-11-13T16:50:26.595Z,61.59
2018-11-13T16:52:55.687Z,61.05
2018-11-13T16:55:29.658Z,61.14
2018-11-13T16:58:01.986Z,62.26
2018-11-13T17:00:32.015Z,61.52
2018-11-13T17:03:01.913Z,63.12
2018-11-13T17:05:32.751Z,61.05
2018-11-13T17:08:02.818Z,63.42
2018-11-13T17:10:33.707Z,63.59
2018-11-13T17:13:06.243Z,62.87
2018-11-13T17:15:34.944Z,61.37
2018-11-13T17:18:03.890Z,61.65
2018-11-13T17:20:32.372Z,60.73
2018-11-13T17:23:01.246Z,60.81
2018-11-13T17:25:33.438Z,63.27
2018-11-13T17:28:04.190Z,62.63
2018-11-13T17:30:35.724Z,63.02
2018-11-13T17:33:06.852Z,61.23
2018-11-13T17:35:37.007Z,61.87
2018-11-13T17:38:07.885Z,60.98
2018-11-13T17:40:38.203Z,63.61
2018-11-13T17:43:08.433Z,63.98
2018-11-13T17:45:40.307Z,62.21
2018-11-13T17:48:11.136Z,62.07
2018-11-13T17:50:41.768Z,63.11
2018-11-13T17:53:11.851Z,63.62
2018-11-13T17:55:41.663Z,63.38
2018-11-13T17:58:13.648Z,63.92
2018-11-13T18:00:46.003Z,63.80
2018-11-13T18:03:16.476Z,62.68
2018-11-13T18:05:48.986Z,63.97
2018-11-13T18:08:22.048Z,63.85
2018-11-13T18:10:51.471Z,64.12
2018-11-13T18:13:21.167Z,63.28
2018-11-13T18:15:50.718Z,63.16
2018-11-13T18:18:20.429Z,62.47
2018-11-13T18:20:50.434Z,61.67
2018-11-13T18:23:20.263Z,59.77
2018-11-13T18:25:51.362Z,61.82
2018-11-13T18:28:21.561Z,63.33
2018-11-13T18:30:51.289Z,62.49
2018-11-13T18:33:22.403Z,63.98
2018-11-13T18:35:53.521Z,63.72
2018-11-13T18:38:25.171Z,62.50
2018-11-13T18:40:55.348Z,61.03
2018-11-13T18:43:26.101Z,60.93
2018-11-13T18:45:56.232Z,63.85
2018-11-13T18:48:26.643Z,60.96
2018-11-13T18:50:56.234Z,64.86
2018-11-13T18:53:25.679Z,64.79
2018-11-13T18:55:55.245Z,64.95
2018-11-13T18:58:25.557Z,63.79
2018-11-13T19:00:56.006Z,63.52
2018-11-13T19:03:25.940Z,64.68
2018-11-13T19:05:55.556Z,63.61
2018-11-13T19:08:32.297Z,65.06
2018-11-13T19:11:03.853Z,63.71
2018-11-13T19:13:33.723Z,64.76
2018-11-13T19:16:05.738Z,64.09
2018-11-13T19:18:35.448Z,65.93
2018-11-13T19:21:04.154Z,64.92
2018-11-13T19:23:32.457Z,65.98
2018-11-13T19:26:00.892Z,65.49
2018-11-13T19:28:29.268Z,66.46
2018-11-13T19:30:57.746Z,67.08
2018-11-13T19:33:26.139Z,66.54
2018-11-13T19:35:54.546Z,66.43
2018-11-13T19:38:22.908Z,67.10
2018-11-13T19:40:51.299Z,65.95
2018-11-13T19:43:19.617Z,67.34
2018-11-13T19:45:48.049Z,66.09
2018-11-13T19:48:16.425Z,66.40
2018-11-13T19:50:44.806Z,65.16
2018-11-13T19:53:13.181Z,66.74
2018-11-13T19:55:41.551Z,65.15
2018-11-13T19:58:09.966Z,66.54
2018-11-13T20:00:42.232Z,67.14
2018-11-13T20:03:11.397Z,66.90
2018-11-13T20:05:41.031Z,66.30
2018-11-13T20:08:10.652Z,65.28
2018-11-13T20:10:40.168Z,65.96
2018-11-13T20:13:09.285Z,65.82
2018-11-13T20:15:38.082Z,66.16
2018-11-13T20:18:06.505Z,65.57
2018-11-13T20:20:35.807Z,66.51
2018-11-13T20:23:05.299Z,65.67
2018-11-13T20:25:34.574Z,66.09
2018-11-13T20:28:08.755Z,64.33
2018-11-13T20:30:39.433Z,64.09
2018-11-13T20:33:07.858Z,65.63
2018-11-13T20:35:36.247Z,64.32
2018-11-13T20:38:07.656Z,65.03
2018-11-13T20:40:36.760Z,62.49
2018-11-13T20:43:06.505Z,65.81
2018-11-13T20:45:34.789Z,65.60
2018-11-13T20:48:03.080Z,66.27
2018-11-13T20:50:32.461Z,61.99
2018-11-13T20:53:00.775Z,63.74
2018-11-13T20:55:29.195Z,63.19
2018-11-13T20:57:57.623Z,63.44
2018-11-13T21:00:29.043Z,65.08
2018-11-13T21:02:57.611Z,66.12
2018-11-13T21:05:26.092Z,67.28
2018-11-13T21:07:54.607Z,67.98
2018-11-13T21:10:23.329Z,66.01
2018-11-13T21:12:52.491Z,65.56
2018-11-13T21:18:13.312Z,67.16
2018-11-13T21:20:41.888Z,68.35
2018-11-13T21:23:10.287Z,66.86
2018-11-13T21:25:38.680Z,66.99
2018-11-13T21:28:07.084Z,67.32
2018-11-13T21:30:35.662Z,66.62
2018-11-13T21:33:04.091Z,65.89
2018-11-13T21:35:32.645Z,65.39
2018-11-13T21:38:01.111Z,63.84
2018-11-13T21:40:29.603Z,64.31
2018-11-13T21:42:58.311Z,64.95
2018-11-13T21:45:28.224Z,66.52
2018-11-13T21:47:56.580Z,63.79
2018-11-13T21:50:26.622Z,66.38
2018-11-13T21:52:54.854Z,65.24
2018-11-13T21:55:24.323Z,66.11
2018-11-13T21:57:52.823Z,64.82
2018-11-13T22:00:24.000Z,66.39
2018-11-13T22:02:56.761Z,66.88
2018-11-13T22:05:26.120Z,65.69
2018-11-13T22:07:54.489Z,65.02
2018-11-13T22:10:22.992Z,66.95
2018-11-13T22:12:51.381Z,66.43
2018-11-13T22:15:21.162Z,65.25
2018-11-13T22:17:49.630Z,67.83
2018-11-13T22:20:18.662Z,65.79
2018-11-13T22:22:48.227Z,66.25
2018-11-13T22:25:19.033Z,66.60
2018-11-13T22:27:48.513Z,65.85
2018-11-13T22:30:18.135Z,67.96
2018-11-13T22:32:47.899Z,65.88
2018-11-13T22:35:16.777Z,67.55
2018-11-13T22:37:45.256Z,68.93
2018-11-13T22:40:17.462Z,67.09
2018-11-13T22:42:46.259Z,68.96
2018-11-13T22:45:17.213Z,66.95
2018-11-13T22:47:45.591Z,64.56
2018-11-13T22:50:17.227Z,66.39
2018-11-13T22:52:45.999Z,67.94
2018-11-13T22:55:15.031Z,67.68
2018-11-13T22:57:44.207Z,66.36
2018-11-13T23:00:18.171Z,66.59
2018-11-13T23:02:46.996Z,65.02
2018-11-13T23:05:15.382Z,63.15
2018-11-13T23:07:43.795Z,62.55
2018-11-13T23:10:13.300Z,63.94
2018-11-13T23:12:43.551Z,65.61
2018-11-13T23:15:15.312Z,64.56
2018-11-13T23:17:44.796Z,64.78
2018-11-13T23:20:16.718Z,66.24
2018-11-13T23:22:46.305Z,65.15
2018-11-13T23:25:17.312Z,65.14
2018-11-13T23:27:47.240Z,66.69
2018-11-13T23:30:18.691Z,65.37
2018-11-13T23:32:48.322Z,64.70
2018-11-13T23:35:17.214Z,65.91
2018-11-13T23:37:46.802Z,64.62
2018-11-13T23:40:16.331Z,64.74
2018-11-13T23:42:46.198Z,64.52
2018-11-13T23:45:16.589Z,62.77
2018-11-13T23:47:45.303Z,62.53
2018-11-13T23:50:13.868Z,64.68
2018-11-13T23:52:42.483Z,65.77
2018-11-13T23:55:11.896Z,63.89
2018-11-13T23:57:40.840Z,63.45
